Tuesday, January 16, 2018, 6:53 AM EST
Back to Local

KCAR, Caribou Municipal Airport

Location: Caribou, ME, United States Lat: 46.867
Local Time: 6:53 AM EST (11:53 GMT) Lon: -68.017
Time Zone: US/Eastern Elev: 626 ft

Show me the last for .
Show Decoded

2018-01-16 05:54 METAR KCAR 161054Z AUTO 03003KT 10SM OVC016 M17/M19 A3048 RMK AO2 SLP342
                 T11671194 =
2018-01-16 04:54 METAR KCAR 160954Z AUTO 35006KT 10SM OVC016 M17/M20 A3050 RMK AO2 SLP348
                 T11671200 =
2018-01-16 03:54 METAR KCAR 160854Z AUTO 35007KT 10SM OVC017 M18/M21 A3050 RMK AO2 SLP347
                 T11781206 58023 =
2018-01-16 02:54 METAR KCAR 160754Z AUTO 01005KT 10SM OVC022 M18/M21 A3053 RMK AO2 SLP358
                 T11781211 =
2018-01-16 01:54 METAR KCAR 160654Z AUTO 00000KT 10SM OVC023 M18/M21 A3055 RMK AO2 SLP367
                 T11781211 =
2018-01-16 00:54 METAR KCAR 160554Z AUTO 36006KT 10SM OVC022 M18/M21 A3056 RMK AO2 SLP371
                 T11781211 11156 21178 56023 =
2018-01-15 23:54 METAR KCAR 160454Z AUTO 01008KT 9SM OVC021 M17/M21 A3058 RMK AO2 SLP379
                 T11721206 411391261 =
2018-01-15 22:54 METAR KCAR 160354Z AUTO 36008KT 10SM OVC020 M17/M20 A3060 RMK AO2 SLP385
                 T11671200 =
2018-01-15 21:54 METAR KCAR 160254Z AUTO 01007KT 10SM OVC021 M17/M20 A3063 RMK AO2 SLP396
                 T11721200 56023 =
2018-01-15 21:41 METAR KCAR 160241Z AUTO 02007KT 10SM BKN020 M17/M20 A3064 RMK AO2 T11671200 =
2018-01-15 20:54 METAR KCAR 160154Z AUTO 01007KT 10SM SCT020 M16/M20 A3064 RMK AO2 SLP399
                 T11611200 =
2018-01-15 19:54 METAR KCAR 160054Z AUTO 02006KT 10SM OVC021 M16/M19 A3069 RMK AO2 SLP415
                 T11561194 =
2018-01-15 18:54 METAR KCAR 152354Z AUTO 02006KT 10SM OVC022 M16/M20 A3070 RMK AO2 SLP421
                 T11561200 11139 21156 58007 =
2018-01-15 17:54 METAR KCAR 152254Z AUTO 34004KT 10SM OVC023 M16/M20 A3072 RMK AO2 SLP428
                 T11561200 =
2018-01-15 17:01 METAR KCAR 152201Z AUTO 35005KT 10SM BKN022 M15/M19 A3072 RMK AO2 T11501194 =
2018-01-15 16:54 METAR KCAR 152154Z AUTO 36006KT 10SM SCT021 M15/M19 A3072 RMK AO2 SLP428
                 T11501194 =
2018-01-15 15:54 METAR KCAR 152054Z AUTO 34003KT 10SM CLR M14/M19 A3073 RMK AO2 SLP428 T11441194
                 56014 =
2018-01-15 14:54 METAR KCAR 151954Z AUTO 35005KT 10SM CLR M14/M19 A3073 RMK AO2 SLP430 T11391194
                 =
2018-01-15 13:54 METAR KCAR 151854Z AUTO 36007KT 10SM CLR M14/M19 A3074 RMK AO2 SLP431 T11391194
                 =
2018-01-15 12:54 METAR KCAR 151754Z AUTO 36008KT 10SM CLR M15/M21 A3077 RMK AO2 SLP442 T11501206
                 11150 21261 58034 =
2018-01-15 11:54 METAR KCAR 151654Z AUTO 34004KT 10SM CLR M16/M22 A3082 RMK AO2 SLP459 T11611217
                 =
2018-01-15 10:54 METAR KCAR 151554Z AUTO 02004KT 10SM CLR M17/M22 A3085 RMK AO2 SLP469 T11721222
                 =
2018-01-15 09:54 METAR KCAR 151454Z AUTO 36007KT 10SM CLR M20/M24 A3087 RMK AO2 SLP478 T12001244
                 50002 =
2018-01-15 08:54 METAR KCAR 151354Z AUTO 01006KT 10SM CLR M22/M26 A3087 RMK AO2 SLP479 T12221261
                 =
2018-01-15 07:54 METAR KCAR 151254Z AUTO 36006KT 10SM CLR M26/M29 A3087 RMK AO2 SLP479 T12561289
                 =
2018-01-15 06:54 METAR KCAR 151154Z AUTO 00000KT 10SM CLR M26/M29 A3086 RMK AO2 SLP476 T12561294
                 11222 21261 51018 =

Support USWX by starting your Amazon purchase here.